sensor_id;sensor_type;location;lat;lon;timestamp;pressure;altitude;pressure_sealevel;temperature;humidity
40946;BME280;55635;50.264;11.918;2023-03-20T00:02:37;95696.28;;;10.16;79.42
40946;BME280;55635;50.264;11.918;2023-03-20T00:05:20;95711.66;;;10.20;79.79
40946;BME280;55635;50.264;11.918;2023-03-20T00:08:03;95706.00;;;10.23;80.05
40946;BME280;55635;50.264;11.918;2023-03-20T00:10:45;95701.59;;;10.16;79.88
40946;BME280;55635;50.264;11.918;2023-03-20T00:13:26;95713.66;;;10.18;81.39
40946;BME280;55635;50.264;11.918;2023-03-20T00:16:09;95704.19;;;10.24;80.22
40946;BME280;55635;50.264;11.918;2023-03-20T00:18:50;95707.53;;;10.18;79.83
40946;BME280;55635;50.264;11.918;2023-03-20T00:21:32;95706.13;;;10.07;80.17
40946;BME280;55635;50.264;11.918;2023-03-20T00:24:15;95701.81;;;10.06;80.27
40946;BME280;55635;50.264;11.918;2023-03-20T00:26:56;95707.91;;;9.92;80.66
40946;BME280;55635;50.264;11.918;2023-03-20T00:29:37;95711.38;;;9.93;81.05
40946;BME280;55635;50.264;11.918;2023-03-20T00:32:18;95702.00;;;10.05;80.31
40946;BME280;55635;50.264;11.918;2023-03-20T00:34:59;95698.53;;;10.04;80.26
40946;BME280;55635;50.264;11.918;2023-03-20T00:37:40;95689.84;;;10.10;79.82
40946;BME280;55635;50.264;11.918;2023-03-20T00:40:21;95696.16;;;10.09;80.08
40946;BME280;55635;50.264;11.918;2023-03-20T00:43:04;95683.88;;;10.16;79.42
40946;BME280;55635;50.264;11.918;2023-03-20T00:45:45;95694.16;;;10.11;79.83
40946;BME280;55635;50.264;11.918;2023-03-20T00:48:26;95680.19;;;10.03;81.01
40946;BME280;55635;50.264;11.918;2023-03-20T00:51:07;95685.56;;;10.09;80.61
40946;BME280;55635;50.264;11.918;2023-03-20T00:53:48;95695.94;;;10.19;79.44
40946;BME280;55635;50.264;11.918;2023-03-20T00:56:34;95690.22;;;10.07;80.66
40946;BME280;55635;50.264;11.918;2023-03-20T00:59:22;95694.19;;;9.89;81.67
40946;BME280;55635;50.264;11.918;2023-03-20T01:02:05;95694.19;;;9.89;81.93
40946;BME280;55635;50.264;11.918;2023-03-20T01:04:46;95687.16;;;9.81;82.16
40946;BME280;55635;50.264;11.918;2023-03-20T01:07:28;95683.03;;;9.78;81.77
40946;BME280;55635;50.264;11.918;2023-03-20T01:10:09;95683.97;;;9.85;81.94
40946;BME280;55635;50.264;11.918;2023-03-20T01:12:52;95689.44;;;9.84;79.82
40946;BME280;55635;50.264;11.918;2023-03-20T01:15:35;95691.44;;;9.82;80.59
40946;BME280;55635;50.264;11.918;2023-03-20T01:18:18;95689.72;;;9.89;80.24
40946;BME280;55635;50.264;11.918;2023-03-20T01:21:00;95696.69;;;9.90;79.78
40946;BME280;55635;50.264;11.918;2023-03-20T01:23:41;95689.63;;;9.82;79.57
40946;BME280;55635;50.264;11.918;2023-03-20T01:32:00;95688.88;;;9.74;77.83
40946;BME280;55635;50.264;11.918;2023-03-20T01:34:41;95688.22;;;9.72;77.65
40946;BME280;55635;50.264;11.918;2023-03-20T01:37:26;95685.75;;;9.70;77.41
40946;BME280;55635;50.264;11.918;2023-03-20T01:43:34;95701.47;;;9.72;80.83
40946;BME280;55635;50.264;11.918;2023-03-20T01:46:17;95692.66;;;9.57;78.73
40946;BME280;55635;50.264;11.918;2023-03-20T01:49:04;95699.22;;;9.61;79.31
40946;BME280;55635;50.264;11.918;2023-03-20T01:51:48;95692.53;;;9.50;78.93
40946;BME280;55635;50.264;11.918;2023-03-20T01:54:34;95697.69;;;9.44;79.46
40946;BME280;55635;50.264;11.918;2023-03-20T01:57:23;95683.38;;;9.30;79.46
40946;BME280;55635;50.264;11.918;2023-03-20T02:00:12;95696.59;;;9.38;79.58
40946;BME280;55635;50.264;11.918;2023-03-20T02:03:01;95698.69;;;9.20;83.21
40946;BME280;55635;50.264;11.918;2023-03-20T02:06:08;95696.91;;;9.12;80.28
40946;BME280;55635;50.264;11.918;2023-03-20T02:09:16;95704.34;;;9.09;83.18
40946;BME280;55635;50.264;11.918;2023-03-20T02:11:59;95709.78;;;9.15;83.14
40946;BME280;55635;50.264;11.918;2023-03-20T02:14:41;95703.19;;;9.11;82.50
40946;BME280;55635;50.264;11.918;2023-03-20T02:17:35;95713.75;;;9.11;84.70
40946;BME280;55635;50.264;11.918;2023-03-20T02:20:44;95714.09;;;9.08;84.08
40946;BME280;55635;50.264;11.918;2023-03-20T02:27:33;95716.88;;;9.46;81.46
40946;BME280;55635;50.264;11.918;2023-03-20T02:40:32;95713.47;;;9.60;81.76
40946;BME280;55635;50.264;11.918;2023-03-20T02:43:20;95712.03;;;9.49;82.94
40946;BME280;55635;50.264;11.918;2023-03-20T02:46:19;95713.34;;;9.53;81.96
40946;BME280;55635;50.264;11.918;2023-03-20T02:52:45;95709.94;;;9.45;82.61
40946;BME280;55635;50.264;11.918;2023-03-20T02:55:37;95714.22;;;9.46;82.62
40946;BME280;55635;50.264;11.918;2023-03-20T02:59:21;95702.03;;;9.37;83.44
40946;BME280;55635;50.264;11.918;2023-03-20T03:01:55;95707.94;;;9.47;82.49
40946;BME280;55635;50.264;11.918;2023-03-20T03:04:43;95719.22;;;9.41;84.01
40946;BME280;55635;50.264;11.918;2023-03-20T03:07:32;95708.63;;;9.41;84.99
40946;BME280;55635;50.264;11.918;2023-03-20T03:10:20;95714.41;;;9.44;85.51
40946;BME280;55635;50.264;11.918;2023-03-20T03:13:04;95714.19;;;9.54;83.91
40946;BME280;55635;50.264;11.918;2023-03-20T03:15:51;95710.50;;;9.55;81.61
40946;BME280;55635;50.264;11.918;2023-03-20T03:18:36;95705.34;;;9.39;84.26
40946;BME280;55635;50.264;11.918;2023-03-20T03:21:20;95698.06;;;9.41;90.26
40946;BME280;55635;50.264;11.918;2023-03-20T03:24:04;95706.03;;;9.55;90.49
40946;BME280;55635;50.264;11.918;2023-03-20T03:26:45;95688.16;;;9.57;90.28
40946;BME280;55635;50.264;11.918;2023-03-20T03:29:30;95692.28;;;9.60;91.09
40946;BME280;55635;50.264;11.918;2023-03-20T03:32:45;95698.50;;;9.67;90.61
40946;BME280;55635;50.264;11.918;2023-03-20T03:35:26;95699.09;;;9.77;90.21
40946;BME280;55635;50.264;11.918;2023-03-20T03:47:21;95695.09;;;9.58;92.13
40946;BME280;55635;50.264;11.918;2023-03-20T03:50:50;95692.38;;;9.66;91.95
40946;BME280;55635;50.264;11.918;2023-03-20T03:53:41;95689.56;;;9.68;90.90
40946;BME280;55635;50.264;11.918;2023-03-20T03:56:31;95693.81;;;9.77;88.95
40946;BME280;55635;50.264;11.918;2023-03-20T03:59:29;95695.09;;;9.81;88.96
40946;BME280;55635;50.264;11.918;2023-03-20T04:02:11;95701.38;;;9.80;88.19
40946;BME280;55635;50.264;11.918;2023-03-20T04:04:54;95707.53;;;9.95;85.66
40946;BME280;55635;50.264;11.918;2023-03-20T04:07:36;95702.25;;;9.95;84.08
40946;BME280;55635;50.264;11.918;2023-03-20T04:10:17;95708.66;;;10.01;82.31
40946;BME280;55635;50.264;11.918;2023-03-20T04:12:58;95706.19;;;9.99;81.08
40946;BME280;55635;50.264;11.918;2023-03-20T04:15:39;95701.88;;;9.98;81.02
40946;BME280;55635;50.264;11.918;2023-03-20T04:18:21;95717.91;;;10.05;80.89
40946;BME280;55635;50.264;11.918;2023-03-20T04:21:02;95715.41;;;10.03;80.01
40946;BME280;55635;50.264;11.918;2023-03-20T04:23:44;95710.38;;;9.94;80.63
40946;BME280;55635;50.264;11.918;2023-03-20T04:26:25;95709.84;;;9.98;80.59
40946;BME280;55635;50.264;11.918;2023-03-20T04:29:06;95722.72;;;10.01;80.69
40946;BME280;55635;50.264;11.918;2023-03-20T04:31:48;95719.63;;;10.12;80.65
40946;BME280;55635;50.264;11.918;2023-03-20T04:34:29;95727.31;;;10.07;80.24
40946;BME280;55635;50.264;11.918;2023-03-20T04:37:15;95728.28;;;10.14;80.06
40946;BME280;55635;50.264;11.918;2023-03-20T04:40:03;95718.38;;;10.08;80.96
40946;BME280;55635;50.264;11.918;2023-03-20T04:42:45;95735.31;;;10.22;80.26
40946;BME280;55635;50.264;11.918;2023-03-20T04:45:26;95731.41;;;10.18;79.89
40946;BME280;55635;50.264;11.918;2023-03-20T04:48:07;95734.03;;;10.18;79.62
40946;BME280;55635;50.264;11.918;2023-03-20T04:50:49;95729.69;;;10.02;79.76
40946;BME280;55635;50.264;11.918;2023-03-20T04:53:33;95730.69;;;9.78;81.63
40946;BME280;55635;50.264;11.918;2023-03-20T04:56:14;95741.00;;;9.96;80.65
40946;BME280;55635;50.264;11.918;2023-03-20T04:58:55;95736.97;;;10.00;80.91
40946;BME280;55635;50.264;11.918;2023-03-20T05:01:37;95732.38;;;9.94;81.26
40946;BME280;55635;50.264;11.918;2023-03-20T05:04:18;95742.44;;;10.21;81.52
40946;BME280;55635;50.264;11.918;2023-03-20T05:07:01;95740.72;;;10.28;80.91
40946;BME280;55635;50.264;11.918;2023-03-20T05:09:51;95740.47;;;10.38;79.88
40946;BME280;55635;50.264;11.918;2023-03-20T05:12:33;95735.72;;;10.33;79.96
40946;BME280;55635;50.264;11.918;2023-03-20T05:15:32;95751.44;;;10.35;79.77
40946;BME280;55635;50.264;11.918;2023-03-20T05:18:32;95752.03;;;10.22;79.40
40946;BME280;55635;50.264;11.918;2023-03-20T05:21:45;95746.47;;;10.09;79.75
40946;BME280;55635;50.264;11.918;2023-03-20T05:24:44;95756.50;;;10.22;78.84
40946;BME280;55635;50.264;11.918;2023-03-20T05:27:45;95754.78;;;10.14;80.60
40946;BME280;55635;50.264;11.918;2023-03-20T05:30:46;95761.22;;;9.89;85.33
40946;BME280;55635;50.264;11.918;2023-03-20T05:33:46;95761.94;;;9.83;87.76
40946;BME280;55635;50.264;11.918;2023-03-20T05:36:46;95767.19;;;10.14;86.09
40946;BME280;55635;50.264;11.918;2023-03-20T05:39:53;95778.41;;;10.38;82.72
40946;BME280;55635;50.264;11.918;2023-03-20T05:42:46;95774.91;;;10.38;81.79
40946;BME280;55635;50.264;11.918;2023-03-20T05:45:41;95778.41;;;10.38;81.01
40946;BME280;55635;50.264;11.918;2023-03-20T05:48:41;95778.25;;;10.55;80.23
40946;BME280;55635;50.264;11.918;2023-03-20T05:51:22;95783.63;;;10.61;79.84
40946;BME280;55635;50.264;11.918;2023-03-20T05:54:06;95782.81;;;10.61;79.95
40946;BME280;55635;50.264;11.918;2023-03-20T05:56:59;95771.28;;;10.68;80.24
40946;BME280;55635;50.264;11.918;2023-03-20T05:59:57;95776.88;;;10.73;78.72
40946;BME280;55635;50.264;11.918;2023-03-20T06:02:55;95779.81;;;10.78;80.18
40946;BME280;55635;50.264;11.918;2023-03-20T06:05:56;95782.09;;;10.67;80.22
40946;BME280;55635;50.264;11.918;2023-03-20T06:08:37;95775.34;;;10.79;80.26
40946;BME280;55635;50.264;11.918;2023-03-20T06:11:19;95778.63;;;10.81;80.55
40946;BME280;55635;50.264;11.918;2023-03-20T06:14:01;95775.06;;;10.88;80.71
40946;BME280;55635;50.264;11.918;2023-03-20T06:16:50;95779.81;;;10.93;80.69
40946;BME280;55635;50.264;11.918;2023-03-20T06:19:34;95780.00;;;10.91;80.92
40946;BME280;55635;50.264;11.918;2023-03-20T06:22:15;95783.94;;;10.81;81.24
40946;BME280;55635;50.264;11.918;2023-03-20T06:24:56;95778.78;;;10.65;83.95
40946;BME280;55635;50.264;11.918;2023-03-20T06:27:45;95787.66;;;10.57;85.32
40946;BME280;55635;50.264;11.918;2023-03-20T06:30:27;95794.56;;;10.44;87.09
40946;BME280;55635;50.264;11.918;2023-03-20T06:33:09;95788.84;;;10.55;86.66
40946;BME280;55635;50.264;11.918;2023-03-20T06:36:01;95800.31;;;10.32;89.24
40946;BME280;55635;50.264;11.918;2023-03-20T06:38:45;95802.28;;;10.53;89.05
40946;BME280;55635;50.264;11.918;2023-03-20T06:41:30;95782.63;;;10.48;88.34
40946;BME280;55635;50.264;11.918;2023-03-20T06:44:11;95789.69;;;10.70;87.74
40946;BME280;55635;50.264;11.918;2023-03-20T06:47:11;95785.28;;;10.62;88.07
40946;BME280;55635;50.264;11.918;2023-03-20T06:49:52;95791.50;;;10.55;88.73
40946;BME280;55635;50.264;11.918;2023-03-20T06:52:35;95800.38;;;10.24;89.81
40946;BME280;55635;50.264;11.918;2023-03-20T06:55:35;95779.94;;;10.33;89.96
40946;BME280;55635;50.264;11.918;2023-03-20T06:58:17;95794.31;;;10.53;89.72
40946;BME280;55635;50.264;11.918;2023-03-20T07:00:59;95793.53;;;10.82;88.81
40946;BME280;55635;50.264;11.918;2023-03-20T07:03:40;95793.06;;;10.64;89.01
40946;BME280;55635;50.264;11.918;2023-03-20T07:06:23;95793.81;;;10.72;88.93
40946;BME280;55635;50.264;11.918;2023-03-20T07:09:06;95788.69;;;11.00;87.36
40946;BME280;55635;50.264;11.918;2023-03-20T07:11:47;95790.31;;;10.86;88.71
40946;BME280;55635;50.264;11.918;2023-03-20T07:14:29;95791.41;;;10.92;88.62
40946;BME280;55635;50.264;11.918;2023-03-20T07:17:18;95795.72;;;11.08;88.33
40946;BME280;55635;50.264;11.918;2023-03-20T07:19:59;95802.97;;;10.99;88.20
40946;BME280;55635;50.264;11.918;2023-03-20T07:22:41;95798.84;;;11.11;87.78
40946;BME280;55635;50.264;11.918;2023-03-20T07:25:34;95804.69;;;10.92;87.91
40946;BME280;55635;50.264;11.918;2023-03-20T07:28:16;95795.94;;;10.91;89.64
40946;BME280;55635;50.264;11.918;2023-03-20T07:31:03;95800.78;;;11.03;89.32
40946;BME280;55635;50.264;11.918;2023-03-20T07:33:46;95788.06;;;11.13;88.80
40946;BME280;55635;50.264;11.918;2023-03-20T07:36:28;95797.06;;;11.33;88.19
40946;BME280;55635;50.264;11.918;2023-03-20T07:39:09;95796.84;;;11.64;85.62
40946;BME280;55635;50.264;11.918;2023-03-20T07:41:53;95804.31;;;11.89;85.88
40946;BME280;55635;50.264;11.918;2023-03-20T07:44:49;95807.47;;;11.64;85.89
40946;BME280;55635;50.264;11.918;2023-03-20T07:47:31;95800.69;;;11.76;85.13
40946;BME280;55635;50.264;11.918;2023-03-20T07:50:12;95794.38;;;11.77;85.55
40946;BME280;55635;50.264;11.918;2023-03-20T07:52:53;95798.50;;;11.50;88.14
40946;BME280;55635;50.264;11.918;2023-03-20T07:55:35;95810.44;;;11.39;87.38
40946;BME280;55635;50.264;11.918;2023-03-20T07:58:16;95790.91;;;11.47;88.46
40946;BME280;55635;50.264;11.918;2023-03-20T08:00:57;95802.47;;;11.90;87.13
40946;BME280;55635;50.264;11.918;2023-03-20T08:03:38;95797.06;;;11.83;86.63
40946;BME280;55635;50.264;11.918;2023-03-20T08:06:19;95807.69;;;12.19;83.32
40946;BME280;55635;50.264;11.918;2023-03-20T08:09:01;95810.94;;;12.42;81.63
40946;BME280;55635;50.264;11.918;2023-03-20T08:11:42;95819.28;;;11.76;83.34
40946;BME280;55635;50.264;11.918;2023-03-20T08:14:23;95813.53;;;12.15;83.24
40946;BME280;55635;50.264;11.918;2023-03-20T08:17:03;95818.78;;;12.29;81.19
40946;BME280;55635;50.264;11.918;2023-03-20T08:19:44;95810.50;;;12.18;81.05
40946;BME280;55635;50.264;11.918;2023-03-20T08:22:25;95810.63;;;12.31;80.78
40946;BME280;55635;50.264;11.918;2023-03-20T08:25:07;95805.88;;;12.26;81.29
40946;BME280;55635;50.264;11.918;2023-03-20T08:27:52;95805.50;;;11.36;84.86
40946;BME280;55635;50.264;11.918;2023-03-20T08:30:33;95813.34;;;11.44;86.92
40946;BME280;55635;50.264;11.918;2023-03-20T08:33:16;95813.16;;;11.61;85.89
40946;BME280;55635;50.264;11.918;2023-03-20T08:35:58;95811.63;;;11.37;86.16
40946;BME280;55635;50.264;11.918;2023-03-20T08:38:39;95821.50;;;11.28;87.70
40946;BME280;55635;50.264;11.918;2023-03-20T08:41:20;95825.19;;;11.27;88.68
40946;BME280;55635;50.264;11.918;2023-03-20T08:44:00;95820.25;;;10.95;89.58
40946;BME280;55635;50.264;11.918;2023-03-20T08:46:42;95819.50;;;11.01;90.62
40946;BME280;55635;50.264;11.918;2023-03-20T08:49:24;95829.13;;;11.02;91.40
40946;BME280;55635;50.264;11.918;2023-03-20T08:52:05;95827.50;;;11.16;90.95
40946;BME280;55635;50.264;11.918;2023-03-20T08:54:46;95831.41;;;10.90;90.76
40946;BME280;55635;50.264;11.918;2023-03-20T08:57:27;95823.34;;;11.42;88.93
40946;BME280;55635;50.264;11.918;2023-03-20T09:00:11;95814.25;;;11.52;88.73
40946;BME280;55635;50.264;11.918;2023-03-20T09:02:53;95817.69;;;11.31;87.69
40946;BME280;55635;50.264;11.918;2023-03-20T09:05:36;95831.47;;;11.56;88.65
40946;BME280;55635;50.264;11.918;2023-03-20T09:08:17;95824.97;;;11.73;87.88
40946;BME280;55635;50.264;11.918;2023-03-20T09:10:58;95825.22;;;12.14;84.84
40946;BME280;55635;50.264;11.918;2023-03-20T09:13:40;95828.66;;;12.14;84.78
40946;BME280;55635;50.264;11.918;2023-03-20T09:16:21;95830.00;;;11.68;86.52
40946;BME280;55635;50.264;11.918;2023-03-20T09:19:02;95835.06;;;11.98;86.31
40946;BME280;55635;50.264;11.918;2023-03-20T09:21:43;95843.78;;;11.27;88.63
40946;BME280;55635;50.264;11.918;2023-03-20T09:24:24;95834.38;;;11.75;87.25
40946;BME280;55635;50.264;11.918;2023-03-20T09:27:05;95831.41;;;11.49;87.23
40946;BME280;55635;50.264;11.918;2023-03-20T09:29:46;95834.56;;;11.59;86.95
40946;BME280;55635;50.264;11.918;2023-03-20T09:32:27;95842.13;;;11.91;85.48
40946;BME280;55635;50.264;11.918;2023-03-20T09:35:08;95839.69;;;12.32;83.56
40946;BME280;55635;50.264;11.918;2023-03-20T09:37:49;95843.88;;;12.41;82.93
40946;BME280;55635;50.264;11.918;2023-03-20T09:40:53;95849.97;;;11.64;86.97
40946;BME280;55635;50.264;11.918;2023-03-20T09:47:17;95838.97;;;11.67;87.92
40946;BME280;55635;50.264;11.918;2023-03-20T09:55:57;95842.50;;;11.88;85.40
40946;BME280;55635;50.264;11.918;2023-03-20T09:58:40;95845.72;;;12.20;82.99
40946;BME280;55635;50.264;11.918;2023-03-20T10:01:35;95847.75;;;12.67;81.58
40946;BME280;55635;50.264;11.918;2023-03-20T10:04:18;95849.47;;;12.74;82.15
40946;BME280;55635;50.264;11.918;2023-03-20T10:07:02;95848.16;;;12.42;82.23
40946;BME280;55635;50.264;11.918;2023-03-20T10:09:43;95848.81;;;12.66;80.84
40946;BME280;55635;50.264;11.918;2023-03-20T10:12:48;95859.19;;;13.09;78.80
40946;BME280;55635;50.264;11.918;2023-03-20T10:15:59;95850.97;;;13.39;77.29
40946;BME280;55635;50.264;11.918;2023-03-20T10:19:20;95862.97;;;13.00;80.21
40946;BME280;55635;50.264;11.918;2023-03-20T10:25:32;95857.56;;;12.60;81.70
40946;BME280;55635;50.264;11.918;2023-03-20T10:28:53;95841.59;;;12.60;82.63
40946;BME280;55635;50.264;11.918;2023-03-20T10:31:54;95848.75;;;13.08;78.60
40946;BME280;55635;50.264;11.918;2023-03-20T10:37:58;95853.38;;;12.99;77.29
40946;BME280;55635;50.264;11.918;2023-03-20T10:40:41;95855.00;;;13.28;78.05
40946;BME280;55635;50.264;11.918;2023-03-20T10:43:28;95842.28;;;13.64;76.13
40946;BME280;55635;50.264;11.918;2023-03-20T10:46:23;95846.13;;;13.55;75.29
40946;BME280;55635;50.264;11.918;2023-03-20T10:49:36;95853.38;;;13.68;75.39
40946;BME280;55635;50.264;11.918;2023-03-20T10:52:28;95851.19;;;13.44;75.61
40946;BME280;55635;50.264;11.918;2023-03-20T10:55:17;95855.31;;;13.46;76.44
40946;BME280;55635;50.264;11.918;2023-03-20T10:58:30;95850.13;;;13.73;75.90
40946;BME280;55635;50.264;11.918;2023-03-20T11:01:13;95855.44;;;13.04;77.97
40946;BME280;55635;50.264;11.918;2023-03-20T11:03:54;95849.91;;;13.05;78.62
40946;BME280;55635;50.264;11.918;2023-03-20T11:09:34;95844.56;;;13.27;76.74
40946;BME280;55635;50.264;11.918;2023-03-20T11:12:18;95849.72;;;13.07;76.30
40946;BME280;55635;50.264;11.918;2023-03-20T11:18:06;95837.97;;;13.23;76.84
40946;BME280;55635;50.264;11.918;2023-03-20T11:20:56;95839.81;;;12.45;81.11
40946;BME280;55635;50.264;11.918;2023-03-20T11:23:37;95836.47;;;12.37;81.35
40946;BME280;55635;50.264;11.918;2023-03-20T11:26:35;95836.34;;;12.24;81.96
40946;BME280;55635;50.264;11.918;2023-03-20T11:29:29;95836.53;;;12.43;81.35
40946;BME280;55635;50.264;11.918;2023-03-20T11:38:14;95826.28;;;13.17;80.51
40946;BME280;55635;50.264;11.918;2023-03-20T11:40:56;95827.19;;;13.37;77.89
40946;BME280;55635;50.264;11.918;2023-03-20T11:43:40;95824.38;;;13.52;75.56
40946;BME280;55635;50.264;11.918;2023-03-20T11:46:23;95823.44;;;13.66;74.13
40946;BME280;55635;50.264;11.918;2023-03-20T11:49:21;95835.19;;;13.85;74.72
40946;BME280;55635;50.264;11.918;2023-03-20T11:52:13;95825.97;;;13.87;74.86
40946;BME280;55635;50.264;11.918;2023-03-20T11:54:59;95819.75;;;13.74;72.75
40946;BME280;55635;50.264;11.918;2023-03-20T11:57:42;95826.19;;;13.92;72.60
40946;BME280;55635;50.264;11.918;2023-03-20T12:00:35;95820.22;;;13.84;72.84
40946;BME280;55635;50.264;11.918;2023-03-20T12:03:44;95827.38;;;13.83;73.48
40946;BME280;55635;50.264;11.918;2023-03-20T12:06:38;95810.00;;;13.94;71.94
40946;BME280;55635;50.264;11.918;2023-03-20T12:12:39;95820.38;;;13.00;75.59
40946;BME280;55635;50.264;11.918;2023-03-20T12:15:38;95822.09;;;13.42;75.98
40946;BME280;55635;50.264;11.918;2023-03-20T12:18:45;95832.03;;;12.93;77.46
40946;BME280;55635;50.264;11.918;2023-03-20T12:22:14;95810.81;;;12.78;77.71
40946;BME280;55635;50.264;11.918;2023-03-20T12:25:24;95814.22;;;13.00;77.77
40946;BME280;55635;50.264;11.918;2023-03-20T12:28:37;95816.31;;;13.32;74.46
40946;BME280;55635;50.264;11.918;2023-03-20T12:31:56;95821.06;;;13.43;73.52
40946;BME280;55635;50.264;11.918;2023-03-20T12:34:45;95818.47;;;13.16;75.90
40946;BME280;55635;50.264;11.918;2023-03-20T12:37:27;95806.06;;;13.29;74.66
40946;BME280;55635;50.264;11.918;2023-03-20T12:40:15;95805.22;;;13.70;73.46
40946;BME280;55635;50.264;11.918;2023-03-20T12:43:04;95800.97;;;13.95;73.57
40946;BME280;55635;50.264;11.918;2023-03-20T12:46:10;95796.00;;;13.85;72.61
40946;BME280;55635;50.264;11.918;2023-03-20T12:52:56;95787.75;;;14.47;69.19
40946;BME280;55635;50.264;11.918;2023-03-20T13:04:38;95788.78;;;14.59;68.29
40946;BME280;55635;50.264;11.918;2023-03-20T13:11:49;95780.84;;;13.73;71.96
40946;BME280;55635;50.264;11.918;2023-03-20T13:15:17;95776.03;;;13.55;72.79
40946;BME280;55635;50.264;11.918;2023-03-20T13:22:00;95765.91;;;14.04;69.52
40946;BME280;55635;50.264;11.918;2023-03-20T13:28:17;95755.59;;;13.21;74.23
40946;BME280;55635;50.264;11.918;2023-03-20T13:40:28;95757.50;;;14.01;69.44
40946;BME280;55635;50.264;11.918;2023-03-20T13:43:24;95767.59;;;14.12;68.88
40946;BME280;55635;50.264;11.918;2023-03-20T13:46:13;95755.56;;;13.55;69.78
40946;BME280;55635;50.264;11.918;2023-03-20T13:49:00;95757.75;;;13.39;71.10
40946;BME280;55635;50.264;11.918;2023-03-20T13:57:58;95749.16;;;13.02;74.33
40946;BME280;55635;50.264;11.918;2023-03-20T14:01:10;95758.88;;;13.17;72.60
40946;BME280;55635;50.264;11.918;2023-03-20T14:03:57;95731.50;;;13.29;71.98
40946;BME280;55635;50.264;11.918;2023-03-20T14:06:54;95749.50;;;13.27;73.85
40946;BME280;55635;50.264;11.918;2023-03-20T14:09:37;95745.91;;;12.73;74.05
40946;BME280;55635;50.264;11.918;2023-03-20T14:12:18;95739.34;;;12.69;76.07
40946;BME280;55635;50.264;11.918;2023-03-20T14:14:59;95740.66;;;13.20;74.87
40946;BME280;55635;50.264;11.918;2023-03-20T14:17:44;95730.81;;;13.14;74.36
40946;BME280;55635;50.264;11.918;2023-03-20T14:23:26;95725.03;;;13.64;72.20
40946;BME280;55635;50.264;11.918;2023-03-20T14:26:26;95726.91;;;13.71;72.14
40946;BME280;55635;50.264;11.918;2023-03-20T14:35:17;95723.38;;;13.50;73.01
40946;BME280;55635;50.264;11.918;2023-03-20T14:44:35;95718.44;;;13.47;72.77
40946;BME280;55635;50.264;11.918;2023-03-20T14:50:40;95715.34;;;13.03;73.66
40946;BME280;55635;50.264;11.918;2023-03-20T14:53:30;95707.38;;;13.50;72.09
40946;BME280;55635;50.264;11.918;2023-03-20T14:56:14;95711.53;;;13.73;70.31
40946;BME280;55635;50.264;11.918;2023-03-20T14:59:02;95713.97;;;13.68;69.10
40946;BME280;55635;50.264;11.918;2023-03-20T15:02:05;95706.66;;;13.96;69.10
40946;BME280;55635;50.264;11.918;2023-03-20T15:04:46;95714.88;;;14.14;68.05
40946;BME280;55635;50.264;11.918;2023-03-20T15:07:30;95720.78;;;13.90;67.34
40946;BME280;55635;50.264;11.918;2023-03-20T15:10:14;95716.09;;;14.11;67.90
40946;BME280;55635;50.264;11.918;2023-03-20T15:12:55;95715.06;;;13.93;66.75
40946;BME280;55635;50.264;11.918;2023-03-20T15:15:37;95714.03;;;14.20;67.11
40946;BME280;55635;50.264;11.918;2023-03-20T15:18:20;95711.09;;;13.56;67.16
40946;BME280;55635;50.264;11.918;2023-03-20T15:21:02;95701.28;;;13.76;66.66
40946;BME280;55635;50.264;11.918;2023-03-20T15:23:45;95702.91;;;13.71;66.30
40946;BME280;55635;50.264;11.918;2023-03-20T15:26:28;95698.63;;;13.83;66.17
40946;BME280;55635;50.264;11.918;2023-03-20T15:29:15;95690.00;;;13.54;67.33
40946;BME280;55635;50.264;11.918;2023-03-20T15:31:59;95694.09;;;13.70;67.51
40946;BME280;55635;50.264;11.918;2023-03-20T15:34:42;95699.88;;;13.87;67.43
40946;BME280;55635;50.264;11.918;2023-03-20T15:37:29;95695.97;;;13.70;67.98
40946;BME280;55635;50.264;11.918;2023-03-20T15:40:23;95701.66;;;13.53;69.06
40946;BME280;55635;50.264;11.918;2023-03-20T15:43:16;95702.75;;;13.18;70.94
40946;BME280;55635;50.264;11.918;2023-03-20T15:45:58;95697.56;;;12.63;73.17
40946;BME280;55635;50.264;11.918;2023-03-20T15:48:39;95704.06;;;12.53;73.42
40946;BME280;55635;50.264;11.918;2023-03-20T15:51:23;95698.47;;;12.83;72.65
40946;BME280;55635;50.264;11.918;2023-03-20T15:54:06;95706.78;;;12.67;72.72
40946;BME280;55635;50.264;11.918;2023-03-20T15:56:51;95712.81;;;12.54;74.28
40946;BME280;55635;50.264;11.918;2023-03-20T15:59:33;95704.75;;;11.85;75.72
40946;BME280;55635;50.264;11.918;2023-03-20T16:02:14;95710.00;;;12.28;76.06
40946;BME280;55635;50.264;11.918;2023-03-20T16:04:55;95704.78;;;12.13;76.84
40946;BME280;55635;50.264;11.918;2023-03-20T16:07:36;95703.97;;;12.40;75.99
40946;BME280;55635;50.264;11.918;2023-03-20T16:10:33;95713.47;;;12.56;74.92
40946;BME280;55635;50.264;11.918;2023-03-20T16:13:16;95702.78;;;12.49;75.30
40946;BME280;55635;50.264;11.918;2023-03-20T16:15:57;95713.09;;;12.59;75.11
40946;BME280;55635;50.264;11.918;2023-03-20T16:18:41;95718.16;;;12.88;73.69
40946;BME280;55635;50.264;11.918;2023-03-20T16:21:31;95713.19;;;12.79;73.91
40946;BME280;55635;50.264;11.918;2023-03-20T16:24:29;95702.16;;;12.82;72.19
40946;BME280;55635;50.264;11.918;2023-03-20T16:27:33;95713.03;;;12.87;72.64
40946;BME280;55635;50.264;11.918;2023-03-20T16:30:25;95711.34;;;12.79;73.72
40946;BME280;55635;50.264;11.918;2023-03-20T16:33:14;95719.44;;;12.99;73.31
40946;BME280;55635;50.264;11.918;2023-03-20T16:35:56;95714.34;;;13.04;71.81
40946;BME280;55635;50.264;11.918;2023-03-20T16:42:10;95727.03;;;12.68;74.54
40946;BME280;55635;50.264;11.918;2023-03-20T16:44:56;95727.16;;;12.25;76.35
40946;BME280;55635;50.264;11.918;2023-03-20T16:47:38;95725.22;;;12.13;76.52
40946;BME280;55635;50.264;11.918;2023-03-20T16:50:22;95716.81;;;11.88;78.59